sensor_id;sensor_type;location;lat;lon;timestamp;temperature;humidity
3566;DHT22;1797;51.844;7.684;2023-01-29T00:01:06;-1.90;99.90
3566;DHT22;1797;51.844;7.684;2023-01-29T00:03:32;-1.80;99.90
3566;DHT22;1797;51.844;7.684;2023-01-29T00:05:58;-1.90;99.90
3566;DHT22;1797;51.844;7.684;2023-01-29T00:08:24;-1.80;99.90
3566;DHT22;1797;51.844;7.684;2023-01-29T00:10:50;-1.80;99.90
3566;DHT22;1797;51.844;7.684;2023-01-29T00:13:16;-1.90;99.90
3566;DHT22;1797;51.844;7.684;2023-01-29T00:15:41;-1.90;99.90
3566;DHT22;1797;51.844;7.684;2023-01-29T00:18:07;-1.80;99.90
3566;DHT22;1797;51.844;7.684;2023-01-29T00:20:33;-1.90;99.90
3566;DHT22;1797;51.844;7.684;2023-01-29T00:22:59;-1.90;99.90
3566;DHT22;1797;51.844;7.684;2023-01-29T00:25:24;-1.90;99.90
3566;DHT22;1797;51.844;7.684;2023-01-29T00:27:50;-1.90;99.90
3566;DHT22;1797;51.844;7.684;2023-01-29T00:30:16;-1.90;99.90
3566;DHT22;1797;51.844;7.684;2023-01-29T00:32:44;-1.90;99.90
3566;DHT22;1797;51.844;7.684;2023-01-29T00:35:10;-1.80;99.90
3566;DHT22;1797;51.844;7.684;2023-01-29T00:37:36;-1.60;99.90
3566;DHT22;1797;51.844;7.684;2023-01-29T00:40:03;-1.80;99.90
3566;DHT22;1797;51.844;7.684;2023-01-29T00:42:28;-1.80;99.90
3566;DHT22;1797;51.844;7.684;2023-01-29T00:45:13;-1.80;99.90
3566;DHT22;1797;51.844;7.684;2023-01-29T00:47:38;-1.90;99.90
3566;DHT22;1797;51.844;7.684;2023-01-29T00:50:07;-1.90;99.90
3566;DHT22;1797;51.844;7.684;2023-01-29T00:52:33;-1.90;99.90
3566;DHT22;1797;51.844;7.684;2023-01-29T00:55:01;-1.80;99.90
3566;DHT22;1797;51.844;7.684;2023-01-29T00:57:29;-1.80;99.90
3566;DHT22;1797;51.844;7.684;2023-01-29T00:59:54;-1.80;99.90
3566;DHT22;1797;51.844;7.684;2023-01-29T01:02:21;-1.80;99.90
3566;DHT22;1797;51.844;7.684;2023-01-29T01:05:07;-1.70;99.90
3566;DHT22;1797;51.844;7.684;2023-01-29T01:07:34;-1.80;99.90
3566;DHT22;1797;51.844;7.684;2023-01-29T01:10:00;-1.70;99.90
3566;DHT22;1797;51.844;7.684;2023-01-29T01:12:44;-1.80;99.90
3566;DHT22;1797;51.844;7.684;2023-01-29T01:15:10;-1.80;99.90
3566;DHT22;1797;51.844;7.684;2023-01-29T01:17:36;-1.80;99.90
3566;DHT22;1797;51.844;7.684;2023-01-29T01:20:03;-1.80;99.90
3566;DHT22;1797;51.844;7.684;2023-01-29T01:22:28;-1.80;99.90
3566;DHT22;1797;51.844;7.684;2023-01-29T01:24:54;-1.90;99.90
3566;DHT22;1797;51.844;7.684;2023-01-29T01:27:19;-1.90;99.90
3566;DHT22;1797;51.844;7.684;2023-01-29T01:29:45;-1.90;99.90
3566;DHT22;1797;51.844;7.684;2023-01-29T01:32:12;-2.00;99.90
3566;DHT22;1797;51.844;7.684;2023-01-29T01:34:37;-2.00;99.90
3566;DHT22;1797;51.844;7.684;2023-01-29T01:37:03;-2.00;99.90
3566;DHT22;1797;51.844;7.684;2023-01-29T01:39:29;-2.00;99.90
3566;DHT22;1797;51.844;7.684;2023-01-29T01:41:54;-2.00;99.90
3566;DHT22;1797;51.844;7.684;2023-01-29T01:44:50;-1.90;99.90
3566;DHT22;1797;51.844;7.684;2023-01-29T01:47:21;-1.90;99.90
3566;DHT22;1797;51.844;7.684;2023-01-29T01:49:48;-1.90;99.90
3566;DHT22;1797;51.844;7.684;2023-01-29T01:52:14;-1.60;99.90
3566;DHT22;1797;51.844;7.684;2023-01-29T01:54:42;-1.80;99.90
3566;DHT22;1797;51.844;7.684;2023-01-29T01:57:13;-1.80;99.90
3566;DHT22;1797;51.844;7.684;2023-01-29T01:59:45;-1.80;99.90
3566;DHT22;1797;51.844;7.684;2023-01-29T02:02:12;-1.80;99.90
3566;DHT22;1797;51.844;7.684;2023-01-29T02:04:57;-1.80;99.90
3566;DHT22;1797;51.844;7.684;2023-01-29T02:07:42;-1.80;99.90
3566;DHT22;1797;51.844;7.684;2023-01-29T02:10:31;-1.80;99.90
3566;DHT22;1797;51.844;7.684;2023-01-29T02:13:05;-1.80;99.90
3566;DHT22;1797;51.844;7.684;2023-01-29T02:15:32;-1.80;99.90
3566;DHT22;1797;51.844;7.684;2023-01-29T02:17:58;-1.90;99.90
3566;DHT22;1797;51.844;7.684;2023-01-29T02:20:26;-1.90;99.90
3566;DHT22;1797;51.844;7.684;2023-01-29T02:23:42;-1.90;99.90
3566;DHT22;1797;51.844;7.684;2023-01-29T02:26:39;-1.80;99.90
3566;DHT22;1797;51.844;7.684;2023-01-29T02:29:17;-1.80;99.90
3566;DHT22;1797;51.844;7.684;2023-01-29T02:32:15;-1.80;99.90
3566;DHT22;1797;51.844;7.684;2023-01-29T02:40:52;-1.60;99.90
3566;DHT22;1797;51.844;7.684;2023-01-29T02:43:43;-1.50;99.90
3566;DHT22;1797;51.844;7.684;2023-01-29T02:46:31;-1.60;99.90
3566;DHT22;1797;51.844;7.684;2023-01-29T02:49:10;-1.50;99.90
3566;DHT22;1797;51.844;7.684;2023-01-29T02:51:48;-1.50;99.90
3566;DHT22;1797;51.844;7.684;2023-01-29T02:54:27;-1.50;99.90
3566;DHT22;1797;51.844;7.684;2023-01-29T02:56:58;-1.50;99.90
3566;DHT22;1797;51.844;7.684;2023-01-29T02:59:34;-1.40;99.90
3566;DHT22;1797;51.844;7.684;2023-01-29T03:02:32;-1.30;99.90
3566;DHT22;1797;51.844;7.684;2023-01-29T03:05:02;-1.40;99.90
3566;DHT22;1797;51.844;7.684;2023-01-29T03:07:36;-1.40;99.90
3566;DHT22;1797;51.844;7.684;2023-01-29T03:10:16;-1.30;99.90
3566;DHT22;1797;51.844;7.684;2023-01-29T03:12:47;-1.30;99.90
3566;DHT22;1797;51.844;7.684;2023-01-29T03:15:19;-1.30;99.90
3566;DHT22;1797;51.844;7.684;2023-01-29T03:18:17;-1.20;99.90
3566;DHT22;1797;51.844;7.684;2023-01-29T03:20:49;-1.20;99.90
3566;DHT22;1797;51.844;7.684;2023-01-29T03:23:23;-1.20;99.90
3566;DHT22;1797;51.844;7.684;2023-01-29T03:25:53;-1.20;99.90
3566;DHT22;1797;51.844;7.684;2023-01-29T03:28:42;-1.20;99.90
3566;DHT22;1797;51.844;7.684;2023-01-29T03:31:28;-1.20;99.90
3566;DHT22;1797;51.844;7.684;2023-01-29T03:34:17;-1.20;99.90
3566;DHT22;1797;51.844;7.684;2023-01-29T03:36:53;-1.10;99.90
3566;DHT22;1797;51.844;7.684;2023-01-29T03:39:20;-1.10;99.90
3566;DHT22;1797;51.844;7.684;2023-01-29T03:42:15;-1.10;99.90
3566;DHT22;1797;51.844;7.684;2023-01-29T03:45:07;-1.20;99.90
3566;DHT22;1797;51.844;7.684;2023-01-29T03:47:45;-1.10;99.90
3566;DHT22;1797;51.844;7.684;2023-01-29T03:50:21;-1.10;99.90
3566;DHT22;1797;51.844;7.684;2023-01-29T03:52:50;-1.00;99.90
3566;DHT22;1797;51.844;7.684;2023-01-29T04:00:57;-1.10;99.90
3566;DHT22;1797;51.844;7.684;2023-01-29T04:03:35;-1.20;99.90
3566;DHT22;1797;51.844;7.684;2023-01-29T04:06:18;-1.20;99.90
3566;DHT22;1797;51.844;7.684;2023-01-29T04:11:21;-1.20;99.90
3566;DHT22;1797;51.844;7.684;2023-01-29T04:13:47;-1.20;99.90
3566;DHT22;1797;51.844;7.684;2023-01-29T04:16:20;-1.20;99.90
3566;DHT22;1797;51.844;7.684;2023-01-29T04:18:47;-1.20;99.90
3566;DHT22;1797;51.844;7.684;2023-01-29T04:21:14;-1.20;99.90
3566;DHT22;1797;51.844;7.684;2023-01-29T04:23:40;-1.20;99.90
3566;DHT22;1797;51.844;7.684;2023-01-29T04:29:19;-1.20;99.90
3566;DHT22;1797;51.844;7.684;2023-01-29T04:34:43;-1.10;99.90
3566;DHT22;1797;51.844;7.684;2023-01-29T04:37:15;-1.20;99.90
3566;DHT22;1797;51.844;7.684;2023-01-29T04:42:42;-1.20;99.90
3566;DHT22;1797;51.844;7.684;2023-01-29T04:47:53;-1.10;99.90
3566;DHT22;1797;51.844;7.684;2023-01-29T04:55:45;-1.10;99.90
3566;DHT22;1797;51.844;7.684;2023-01-29T05:00:52;-1.10;99.90
3566;DHT22;1797;51.844;7.684;2023-01-29T05:03:22;-1.10;99.90
3566;DHT22;1797;51.844;7.684;2023-01-29T05:05:50;-1.10;99.90
3566;DHT22;1797;51.844;7.684;2023-01-29T05:08:19;-1.00;99.90
3566;DHT22;1797;51.844;7.684;2023-01-29T05:10:47;-1.00;99.90
3566;DHT22;1797;51.844;7.684;2023-01-29T05:13:14;-1.00;99.90
3566;DHT22;1797;51.844;7.684;2023-01-29T05:16:03;-1.00;99.90
3566;DHT22;1797;51.844;7.684;2023-01-29T05:18:29;-1.00;99.90
3566;DHT22;1797;51.844;7.684;2023-01-29T05:20:56;-1.00;99.90
3566;DHT22;1797;51.844;7.684;2023-01-29T05:23:23;-1.00;99.90
3566;DHT22;1797;51.844;7.684;2023-01-29T05:25:49;-1.00;99.90
3566;DHT22;1797;51.844;7.684;2023-01-29T05:28:16;-1.00;99.90
3566;DHT22;1797;51.844;7.684;2023-01-29T05:30:44;-1.00;99.90
3566;DHT22;1797;51.844;7.684;2023-01-29T05:33:22;-0.90;99.90
3566;DHT22;1797;51.844;7.684;2023-01-29T05:35:48;-0.90;99.90
3566;DHT22;1797;51.844;7.684;2023-01-29T05:38:15;-0.90;99.90
3566;DHT22;1797;51.844;7.684;2023-01-29T05:40:40;-0.90;99.90
3566;DHT22;1797;51.844;7.684;2023-01-29T05:43:18;-0.90;99.90
3566;DHT22;1797;51.844;7.684;2023-01-29T05:45:54;-0.80;99.90
3566;DHT22;1797;51.844;7.684;2023-01-29T05:48:21;-0.80;99.90
3566;DHT22;1797;51.844;7.684;2023-01-29T05:50:47;-0.80;99.90
3566;DHT22;1797;51.844;7.684;2023-01-29T05:53:13;-0.80;99.90
3566;DHT22;1797;51.844;7.684;2023-01-29T05:55:38;-0.80;99.90
3566;DHT22;1797;51.844;7.684;2023-01-29T05:58:04;-0.80;99.90
3566;DHT22;1797;51.844;7.684;2023-01-29T06:00:30;-0.80;99.90
3566;DHT22;1797;51.844;7.684;2023-01-29T06:02:57;-0.80;99.90
3566;DHT22;1797;51.844;7.684;2023-01-29T06:05:23;-0.80;99.90
3566;DHT22;1797;51.844;7.684;2023-01-29T06:07:48;-0.70;99.90
3566;DHT22;1797;51.844;7.684;2023-01-29T06:10:15;-0.70;99.90
3566;DHT22;1797;51.844;7.684;2023-01-29T06:12:42;-0.70;99.90
3566;DHT22;1797;51.844;7.684;2023-01-29T06:15:09;-0.70;99.90
3566;DHT22;1797;51.844;7.684;2023-01-29T06:17:35;-0.80;99.90
3566;DHT22;1797;51.844;7.684;2023-01-29T06:20:00;-0.80;99.90
3566;DHT22;1797;51.844;7.684;2023-01-29T06:22:26;-0.80;99.90
3566;DHT22;1797;51.844;7.684;2023-01-29T06:24:52;-0.80;99.90
3566;DHT22;1797;51.844;7.684;2023-01-29T06:27:17;-0.80;99.90
3566;DHT22;1797;51.844;7.684;2023-01-29T06:29:43;-0.80;99.90
3566;DHT22;1797;51.844;7.684;2023-01-29T06:32:08;-0.80;99.90
3566;DHT22;1797;51.844;7.684;2023-01-29T06:34:34;-0.80;99.90
3566;DHT22;1797;51.844;7.684;2023-01-29T06:37:00;-0.80;99.90
3566;DHT22;1797;51.844;7.684;2023-01-29T06:39:25;-0.80;99.90
3566;DHT22;1797;51.844;7.684;2023-01-29T06:41:51;-0.80;99.90
3566;DHT22;1797;51.844;7.684;2023-01-29T06:44:16;-0.80;99.90
3566;DHT22;1797;51.844;7.684;2023-01-29T06:46:42;-0.80;99.90
3566;DHT22;1797;51.844;7.684;2023-01-29T06:49:07;-0.70;99.90
3566;DHT22;1797;51.844;7.684;2023-01-29T06:51:33;-0.70;99.90
3566;DHT22;1797;51.844;7.684;2023-01-29T06:53:59;-0.70;99.90
3566;DHT22;1797;51.844;7.684;2023-01-29T06:56:24;-0.80;99.90
3566;DHT22;1797;51.844;7.684;2023-01-29T06:58:50;-0.70;99.90
3566;DHT22;1797;51.844;7.684;2023-01-29T07:01:16;-0.70;99.90
3566;DHT22;1797;51.844;7.684;2023-01-29T07:03:41;-0.70;99.90
3566;DHT22;1797;51.844;7.684;2023-01-29T07:06:08;-0.70;99.90
3566;DHT22;1797;51.844;7.684;2023-01-29T07:08:38;-0.60;99.90
3566;DHT22;1797;51.844;7.684;2023-01-29T07:11:04;-0.60;99.90
3566;DHT22;1797;51.844;7.684;2023-01-29T07:13:32;-0.70;99.90
3566;DHT22;1797;51.844;7.684;2023-01-29T07:16:01;-0.70;99.90
3566;DHT22;1797;51.844;7.684;2023-01-29T07:18:28;-0.70;99.90
3566;DHT22;1797;51.844;7.684;2023-01-29T07:20:54;-0.60;99.90
3566;DHT22;1797;51.844;7.684;2023-01-29T07:23:20;-0.60;99.90
3566;DHT22;1797;51.844;7.684;2023-01-29T07:25:46;-0.60;99.90
3566;DHT22;1797;51.844;7.684;2023-01-29T07:28:17;-0.60;99.90
3566;DHT22;1797;51.844;7.684;2023-01-29T07:30:43;-0.60;99.90
3566;DHT22;1797;51.844;7.684;2023-01-29T07:33:09;-0.50;99.90
3566;DHT22;1797;51.844;7.684;2023-01-29T07:35:37;-0.50;99.90
3566;DHT22;1797;51.844;7.684;2023-01-29T07:38:02;-0.50;99.90
3566;DHT22;1797;51.844;7.684;2023-01-29T07:40:28;-0.40;99.90
3566;DHT22;1797;51.844;7.684;2023-01-29T07:43:01;-0.40;99.90
3566;DHT22;1797;51.844;7.684;2023-01-29T07:45:28;-0.40;99.90
3566;DHT22;1797;51.844;7.684;2023-01-29T07:47:54;-0.30;99.90
3566;DHT22;1797;51.844;7.684;2023-01-29T07:50:24;-0.40;99.90
3566;DHT22;1797;51.844;7.684;2023-01-29T07:52:50;-0.40;99.90
3566;DHT22;1797;51.844;7.684;2023-01-29T07:55:16;-0.40;99.90
3566;DHT22;1797;51.844;7.684;2023-01-29T07:57:42;-0.40;99.90
3566;DHT22;1797;51.844;7.684;2023-01-29T08:00:09;-0.40;99.90
3566;DHT22;1797;51.844;7.684;2023-01-29T08:02:34;-0.40;99.90
3566;DHT22;1797;51.844;7.684;2023-01-29T08:05:00;-0.40;99.90
3566;DHT22;1797;51.844;7.684;2023-01-29T08:07:26;-0.40;99.90
3566;DHT22;1797;51.844;7.684;2023-01-29T08:09:51;-0.40;99.90
3566;DHT22;1797;51.844;7.684;2023-01-29T08:12:17;-0.30;99.90
3566;DHT22;1797;51.844;7.684;2023-01-29T08:14:43;-0.30;99.90
3566;DHT22;1797;51.844;7.684;2023-01-29T08:17:10;-0.30;99.90
3566;DHT22;1797;51.844;7.684;2023-01-29T08:19:36;-0.30;99.90
3566;DHT22;1797;51.844;7.684;2023-01-29T08:22:02;-0.30;99.90
3566;DHT22;1797;51.844;7.684;2023-01-29T08:24:28;-0.30;99.90
3566;DHT22;1797;51.844;7.684;2023-01-29T08:26:53;-0.20;99.90
3566;DHT22;1797;51.844;7.684;2023-01-29T08:29:19;-0.20;99.90
3566;DHT22;1797;51.844;7.684;2023-01-29T08:31:45;-0.30;99.90
3566;DHT22;1797;51.844;7.684;2023-01-29T08:34:10;-0.20;99.90
3566;DHT22;1797;51.844;7.684;2023-01-29T08:36:36;-0.30;99.90
3566;DHT22;1797;51.844;7.684;2023-01-29T08:39:02;-0.20;99.90
3566;DHT22;1797;51.844;7.684;2023-01-29T08:41:27;-0.20;99.90
3566;DHT22;1797;51.844;7.684;2023-01-29T08:43:53;-0.10;99.90
3566;DHT22;1797;51.844;7.684;2023-01-29T08:46:19;-0.10;99.90
3566;DHT22;1797;51.844;7.684;2023-01-29T08:48:44;-0.10;99.90
3566;DHT22;1797;51.844;7.684;2023-01-29T08:51:10;0.00;99.90
3566;DHT22;1797;51.844;7.684;2023-01-29T08:53:36;0.00;99.90
3566;DHT22;1797;51.844;7.684;2023-01-29T08:56:01;0.10;99.90
3566;DHT22;1797;51.844;7.684;2023-01-29T08:58:27;0.20;99.90
3566;DHT22;1797;51.844;7.684;2023-01-29T09:00:52;0.20;99.90
3566;DHT22;1797;51.844;7.684;2023-01-29T09:03:18;0.30;99.90
3566;DHT22;1797;51.844;7.684;2023-01-29T09:05:43;0.30;99.90
3566;DHT22;1797;51.844;7.684;2023-01-29T09:08:11;0.40;99.90
3566;DHT22;1797;51.844;7.684;2023-01-29T09:10:36;0.40;99.90
3566;DHT22;1797;51.844;7.684;2023-01-29T09:13:02;0.40;99.90
3566;DHT22;1797;51.844;7.684;2023-01-29T09:15:28;0.40;99.90
3566;DHT22;1797;51.844;7.684;2023-01-29T09:17:54;0.50;99.90
3566;DHT22;1797;51.844;7.684;2023-01-29T09:20:20;0.50;99.90
3566;DHT22;1797;51.844;7.684;2023-01-29T09:22:46;0.50;99.90
3566;DHT22;1797;51.844;7.684;2023-01-29T09:25:11;0.50;99.90
3566;DHT22;1797;51.844;7.684;2023-01-29T09:27:37;0.50;99.90
3566;DHT22;1797;51.844;7.684;2023-01-29T09:30:04;0.50;99.90
3566;DHT22;1797;51.844;7.684;2023-01-29T09:32:30;0.50;99.90
3566;DHT22;1797;51.844;7.684;2023-01-29T09:34:56;0.50;99.90
3566;DHT22;1797;51.844;7.684;2023-01-29T09:37:22;0.50;99.90
3566;DHT22;1797;51.844;7.684;2023-01-29T09:39:51;0.60;99.90
3566;DHT22;1797;51.844;7.684;2023-01-29T09:42:27;0.60;99.90
3566;DHT22;1797;51.844;7.684;2023-01-29T09:47:22;0.70;99.90
3566;DHT22;1797;51.844;7.684;2023-01-29T09:49:54;0.70;99.90
3566;DHT22;1797;51.844;7.684;2023-01-29T09:52:40;0.70;99.90
3566;DHT22;1797;51.844;7.684;2023-01-29T09:57:57;0.80;99.90
3566;DHT22;1797;51.844;7.684;2023-01-29T10:11:37;0.80;99.90
3566;DHT22;1797;51.844;7.684;2023-01-29T10:14:22;0.90;99.90
3566;DHT22;1797;51.844;7.684;2023-01-29T10:25:02;0.90;99.90
3566;DHT22;1797;51.844;7.684;2023-01-29T10:27:33;1.00;99.90
3566;DHT22;1797;51.844;7.684;2023-01-29T10:30:02;1.00;99.90
3566;DHT22;1797;51.844;7.684;2023-01-29T10:32:31;1.00;99.90
3566;DHT22;1797;51.844;7.684;2023-01-29T10:43:51;1.10;99.90
3566;DHT22;1797;51.844;7.684;2023-01-29T10:46:35;1.10;99.90
3566;DHT22;1797;51.844;7.684;2023-01-29T10:52:28;1.20;99.90
3566;DHT22;1797;51.844;7.684;2023-01-29T10:55:29;1.20;99.90
3566;DHT22;1797;51.844;7.684;2023-01-29T10:58:33;1.20;99.90
3566;DHT22;1797;51.844;7.684;2023-01-29T11:01:00;1.20;99.90
3566;DHT22;1797;51.844;7.684;2023-01-29T11:03:31;1.20;99.90
3566;DHT22;1797;51.844;7.684;2023-01-29T11:11:43;1.10;99.90
3566;DHT22;1797;51.844;7.684;2023-01-29T11:16:47;1.10;99.90
3566;DHT22;1797;51.844;7.684;2023-01-29T11:19:14;1.10;99.90
3566;DHT22;1797;51.844;7.684;2023-01-29T11:21:57;1.20;99.90
3566;DHT22;1797;51.844;7.684;2023-01-29T11:24:23;1.30;99.90
3566;DHT22;1797;51.844;7.684;2023-01-29T11:26:50;1.30;99.90
3566;DHT22;1797;51.844;7.684;2023-01-29T11:29:40;1.30;99.90
3566;DHT22;1797;51.844;7.684;2023-01-29T11:32:25;1.30;99.90
3566;DHT22;1797;51.844;7.684;2023-01-29T11:34:57;1.40;99.90
3566;DHT22;1797;51.844;7.684;2023-01-29T11:37:37;1.40;99.90
3566;DHT22;1797;51.844;7.684;2023-01-29T11:40:28;1.50;99.90
3566;DHT22;1797;51.844;7.684;2023-01-29T11:45:41;1.50;99.90
3566;DHT22;1797;51.844;7.684;2023-01-29T11:48:14;1.50;99.90
3566;DHT22;1797;51.844;7.684;2023-01-29T11:50:41;1.50;99.90
3566;DHT22;1797;51.844;7.684;2023-01-29T11:53:27;1.50;99.90
3566;DHT22;1797;51.844;7.684;2023-01-29T11:55:56;1.40;99.90
3566;DHT22;1797;51.844;7.684;2023-01-29T11:58:30;1.50;99.90
3566;DHT22;1797;51.844;7.684;2023-01-29T12:00:57;1.60;99.90
3566;DHT22;1797;51.844;7.684;2023-01-29T12:03:44;1.60;99.90
3566;DHT22;1797;51.844;7.684;2023-01-29T12:06:42;1.50;99.90
3566;DHT22;1797;51.844;7.684;2023-01-29T12:09:14;1.60;99.90
3566;DHT22;1797;51.844;7.684;2023-01-29T12:11:41;1.60;99.90
3566;DHT22;1797;51.844;7.684;2023-01-29T12:14:29;1.70;99.90
3566;DHT22;1797;51.844;7.684;2023-01-29T12:17:19;1.70;99.90
3566;DHT22;1797;51.844;7.684;2023-01-29T12:22:21;1.70;99.90
3566;DHT22;1797;51.844;7.684;2023-01-29T12:25:01;1.80;99.90
3566;DHT22;1797;51.844;7.684;2023-01-29T12:33:51;1.80;99.90
3566;DHT22;1797;51.844;7.684;2023-01-29T12:38:50;1.80;99.90
3566;DHT22;1797;51.844;7.684;2023-01-29T12:41:32;1.80;99.90
3566;DHT22;1797;51.844;7.684;2023-01-29T12:44:15;1.80;99.90
3566;DHT22;1797;51.844;7.684;2023-01-29T12:46:50;1.80;99.90
3566;DHT22;1797;51.844;7.684;2023-01-29T12:49:27;1.90;99.90
3566;DHT22;1797;51.844;7.684;2023-01-29T12:51:57;1.90;99.90
3566;DHT22;1797;51.844;7.684;2023-01-29T12:54:46;1.80;99.90
3566;DHT22;1797;51.844;7.684;2023-01-29T12:59:51;2.00;99.90
3566;DHT22;1797;51.844;7.684;2023-01-29T13:06:04;2.00;99.90
3566;DHT22;1797;51.844;7.684;2023-01-29T13:08:29;2.10;99.90
3566;DHT22;1797;51.844;7.684;2023-01-29T13:10:57;2.10;99.90
3566;DHT22;1797;51.844;7.684;2023-01-29T13:13:44;2.10;99.90
3566;DHT22;1797;51.844;7.684;2023-01-29T13:16:22;2.00;99.90
3566;DHT22;1797;51.844;7.684;2023-01-29T13:18:55;2.10;99.90
3566;DHT22;1797;51.844;7.684;2023-01-29T13:21:40;2.10;99.90
3566;DHT22;1797;51.844;7.684;2023-01-29T13:24:14;2.10;99.90
3566;DHT22;1797;51.844;7.684;2023-01-29T13:26:44;2.10;99.90
3566;DHT22;1797;51.844;7.684;2023-01-29T13:29:29;2.10;99.90
3566;DHT22;1797;51.844;7.684;2023-01-29T13:32:00;2.10;99.90
3566;DHT22;1797;51.844;7.684;2023-01-29T13:34:33;2.20;99.90
3566;DHT22;1797;51.844;7.684;2023-01-29T13:37:02;2.20;99.90
3566;DHT22;1797;51.844;7.684;2023-01-29T13:39:36;2.20;99.90
3566;DHT22;1797;51.844;7.684;2023-01-29T13:45:02;2.20;99.90
3566;DHT22;1797;51.844;7.684;2023-01-29T13:47:35;2.10;99.90
3566;DHT22;1797;51.844;7.684;2023-01-29T13:52:45;2.10;99.90
3566;DHT22;1797;51.844;7.684;2023-01-29T14:02:39;2.10;99.90
3566;DHT22;1797;51.844;7.684;2023-01-29T14:07:59;2.10;99.90
3566;DHT22;1797;51.844;7.684;2023-01-29T14:10:27;2.10;99.90
3566;DHT22;1797;51.844;7.684;2023-01-29T14:15:33;2.00;99.90
3566;DHT22;1797;51.844;7.684;2023-01-29T14:18:17;2.00;99.90
3566;DHT22;1797;51.844;7.684;2023-01-29T14:25:52;1.90;99.90
3566;DHT22;1797;51.844;7.684;2023-01-29T14:28:27;1.90;99.90
3566;DHT22;1797;51.844;7.684;2023-01-29T14:30:53;1.90;99.90
3566;DHT22;1797;51.844;7.684;2023-01-29T14:33:34;1.90;99.90
3566;DHT22;1797;51.844;7.684;2023-01-29T14:36:19;1.90;99.90
3566;DHT22;1797;51.844;7.684;2023-01-29T14:38:48;1.90;99.90
3566;DHT22;1797;51.844;7.684;2023-01-29T14:41:27;1.90;99.90
3566;DHT22;1797;51.844;7.684;2023-01-29T14:44:45;1.90;99.90
3566;DHT22;1797;51.844;7.684;2023-01-29T14:47:01;1.90;99.90
3566;DHT22;1797;51.844;7.684;2023-01-29T14:49:50;1.80;99.90
3566;DHT22;1797;51.844;7.684;2023-01-29T14:52:18;1.90;99.90
3566;DHT22;1797;51.844;7.684;2023-01-29T14:54:46;1.80;99.90
3566;DHT22;1797;51.844;7.684;2023-01-29T14:57:14;1.80;99.90
3566;DHT22;1797;51.844;7.684;2023-01-29T15:00:00;1.80;99.90
3566;DHT22;1797;51.844;7.684;2023-01-29T15:02:29;1.80;99.90
3566;DHT22;1797;51.844;7.684;2023-01-29T15:05:02;1.80;99.90
3566;DHT22;1797;51.844;7.684;2023-01-29T15:10:41;1.80;99.90
3566;DHT22;1797;51.844;7.684;2023-01-29T15:13:18;1.80;99.90
3566;DHT22;1797;51.844;7.684;2023-01-29T15:15:53;1.80;99.90
3566;DHT22;1797;51.844;7.684;2023-01-29T15:18:31;1.80;99.90
3566;DHT22;1797;51.844;7.684;2023-01-29T15:21:09;1.80;99.90
3566;DHT22;1797;51.844;7.684;2023-01-29T15:23:37;1.80;99.90
3566;DHT22;1797;51.844;7.684;2023-01-29T15:26:11;1.80;99.90
3566;DHT22;1797;51.844;7.684;2023-01-29T15:28:40;1.80;99.90
3566;DHT22;1797;51.844;7.684;2023-01-29T15:31:11;1.80;99.90
3566;DHT22;1797;51.844;7.684;2023-01-29T15:33:41;1.80;99.90
3566;DHT22;1797;51.844;7.684;2023-01-29T15:36:11;1.70;99.90
3566;DHT22;1797;51.844;7.684;2023-01-29T15:38:41;1.70;99.90
3566;DHT22;1797;51.844;7.684;2023-01-29T15:41:18;1.80;99.90
3566;DHT22;1797;51.844;7.684;2023-01-29T15:43:49;1.80;99.90
3566;DHT22;1797;51.844;7.684;2023-01-29T15:46:32;1.80;99.90
3566;DHT22;1797;51.844;7.684;2023-01-29T15:49:05;1.70;99.90
3566;DHT22;1797;51.844;7.684;2023-01-29T15:51:31;1.70;99.90
3566;DHT22;1797;51.844;7.684;2023-01-29T15:53:59;1.70;99.90
3566;DHT22;1797;51.844;7.684;2023-01-29T15:56:29;1.70;99.90
3566;DHT22;1797;51.844;7.684;2023-01-29T15:58:57;1.70;99.90
3566;DHT22;1797;51.844;7.684;2023-01-29T16:01:27;1.70;99.90
3566;DHT22;1797;51.844;7.684;2023-01-29T16:03:53;1.70;99.90
3566;DHT22;1797;51.844;7.684;2023-01-29T16:06:22;1.70;99.90
3566;DHT22;1797;51.844;7.684;2023-01-29T16:08:52;1.70;99.90
3566;DHT22;1797;51.844;7.684;2023-01-29T16:11:19;1.60;99.90
3566;DHT22;1797;51.844;7.684;2023-01-29T16:13:47;1.60;99.90
3566;DHT22;1797;51.844;7.684;2023-01-29T16:18:41;1.60;99.90
3566;DHT22;1797;51.844;7.684;2023-01-29T16:21:15;1.60;99.90
3566;DHT22;1797;51.844;7.684;2023-01-29T16:23:53;1.60;99.90
3566;DHT22;1797;51.844;7.684;2023-01-29T16:26:25;1.60;99.90
3566;DHT22;1797;51.844;7.684;2023-01-29T16:28:52;1.60;99.90
3566;DHT22;1797;51.844;7.684;2023-01-29T16:31:26;1.60;99.90
3566;DHT22;1797;51.844;7.684;2023-01-29T16:33:52;1.60;99.90
3566;DHT22;1797;51.844;7.684;2023-01-29T16:36:20;1.60;99.90
3566;DHT22;1797;51.844;7.684;2023-01-29T16:39:02;1.70;99.90
3566;DHT22;1797;51.844;7.684;2023-01-29T16:41:31;1.60;99.90
3566;DHT22;1797;51.844;7.684;2023-01-29T16:43:59;1.60;99.90
3566;DHT22;1797;51.844;7.684;2023-01-29T16:46:36;1.70;99.90
3566;DHT22;1797;51.844;7.684;2023-01-29T16:51:51;1.70;99.90
3566;DHT22;1797;51.844;7.684;2023-01-29T16:54:20;1.70;99.90
3566;DHT22;1797;51.844;7.684;2023-01-29T16:56:50;1.70;99.90
3566;DHT22;1797;51.844;7.684;2023-01-29T16:59:34;1.70;99.90
3566;DHT22;1797;51.844;7.684;2023-01-29T17:02:01;1.70;99.90
3566;DHT22;1797;51.844;7.684;2023-01-29T17:04:27;1.70;99.90
3566;DHT22;1797;51.844;7.684;2023-01-29T17:06:56;1.60;99.90
3566;DHT22;1797;51.844;7.684;2023-01-29T17:09:28;1.60;99.90
3566;DHT22;1797;51.844;7.684;2023-01-29T17:11:56;1.60;99.90
3566;DHT22;1797;51.844;7.684;2023-01-29T17:14:24;1.70;99.90
3566;DHT22;1797;51.844;7.684;2023-01-29T17:19:18;1.70;99.90
3566;DHT22;1797;51.844;7.684;2023-01-29T17:21:45;1.80;99.90
3566;DHT22;1797;51.844;7.684;2023-01-29T17:24:11;1.80;99.90
3566;DHT22;1797;51.844;7.684;2023-01-29T17:26:37;1.70;99.90
3566;DHT22;1797;51.844;7.684;2023-01-29T17:29:03;1.70;99.90
3566;DHT22;1797;51.844;7.684;2023-01-29T17:31:28;1.70;99.90
3566;DHT22;1797;51.844;7.684;2023-01-29T17:33:54;1.70;99.90
3566;DHT22;1797;51.844;7.684;2023-01-29T17:36:19;1.70;99.90
3566;DHT22;1797;51.844;7.684;2023-01-29T17:38:45;1.70;99.90
3566;DHT22;1797;51.844;7.684;2023-01-29T17:41:24;1.70;99.90
3566;DHT22;1797;51.844;7.684;2023-01-29T17:43:51;1.70;99.90
3566;DHT22;1797;51.844;7.684;2023-01-29T17:46:18;1.70;99.90
3566;DHT22;1797;51.844;7.684;2023-01-29T17:48:44;1.70;99.90
3566;DHT22;1797;51.844;7.684;2023-01-29T17:51:12;1.70;99.90
3566;DHT22;1797;51.844;7.684;2023-01-29T17:53:41;1.70;99.90
3566;DHT22;1797;51.844;7.684;2023-01-29T17:56:20;1.70;99.90
3566;DHT22;1797;51.844;7.684;2023-01-29T17:58:47;1.70;99.90
3566;DHT22;1797;51.844;7.684;2023-01-29T18:01:13;1.70;99.90
3566;DHT22;1797;51.844;7.684;2023-01-29T18:03:39;1.70;99.90
3566;DHT22;1797;51.844;7.684;2023-01-29T18:06:08;1.70;99.90
3566;DHT22;1797;51.844;7.684;2023-01-29T18:08:36;1.80;99.90
3566;DHT22;1797;51.844;7.684;2023-01-29T18:11:02;1.80;99.90
3566;DHT22;1797;51.844;7.684;2023-01-29T18:13:28;1.80;99.90
3566;DHT22;1797;51.844;7.684;2023-01-29T18:15:53;1.80;99.90
3566;DHT22;1797;51.844;7.684;2023-01-29T18:18:21;1.80;99.90
3566;DHT22;1797;51.844;7.684;2023-01-29T18:20:47;1.90;99.90
3566;DHT22;1797;51.844;7.684;2023-01-29T18:23:13;1.90;99.90
3566;DHT22;1797;51.844;7.684;2023-01-29T18:25:39;1.90;99.90
3566;DHT22;1797;51.844;7.684;2023-01-29T18:28:06;1.90;99.90
3566;DHT22;1797;51.844;7.684;2023-01-29T18:30:32;1.90;99.90
3566;DHT22;1797;51.844;7.684;2023-01-29T18:32:58;2.00;99.90
3566;DHT22;1797;51.844;7.684;2023-01-29T18:35:25;2.00;99.90
3566;DHT22;1797;51.844;7.684;2023-01-29T18:37:51;2.00;99.90
3566;DHT22;1797;51.844;7.684;2023-01-29T18:40:17;2.00;99.90
3566;DHT22;1797;51.844;7.684;2023-01-29T18:42:44;2.00;99.90
3566;DHT22;1797;51.844;7.684;2023-01-29T18:45:09;2.00;99.90
3566;DHT22;1797;51.844;7.684;2023-01-29T18:47:36;2.00;99.90